Rechercher aéroport 
image banner adimage banner adimage banner ad
image banner ad

KTCY - Tracy Muni

Situé à Tracy, United States

ICAO - TCY, IATA -

Données fournies par Airmate  

Information générale

Coordonnées: N37°41'20" W121°26'30"
Élévation : 193 feet MSL.
Variation magnétique : 15° East
Voir autres Aéroports à California

Données opérationnelles

Special qualification required
Heure actuelle UTC:
Heure actuelle locale:
Météo
METAR: KTCY 300135Z AUTO 26008KT 10SM CLR 37/08 A2981 RMK A01
Voir NOTAMs / SUP AIP / TFR affectant cet aéroport [VIEW]
Fréquences de communication: [VIEW]

Pistes:

Identifiant RWYQFULongueur (ft)Largeur (ft)SurfaceLDA (ft)
12132°400175ASPH
30312°400175ASPH
0890°343875ASPH
26270°343875ASPH

Coordonnées de l'aéroport

Adresse: Tracy United States

Autres services d'aviation

Écoles de pilotage

Skyview Aviation, Llc

Skyview Aviation, Llc

Vue satellite de KTCY